Time,TemperatureF,DewpointF,PressureIn,WindDirection,WindDirectionDegrees,WindSpeedMPH,WindSpeedGustMPH,Humidity,HourlyPrecipIn,Conditions,Clouds,dailyrainin,SolarRadiationWatts/m^2,SoftwareType,DateUTC
2013-09-07 00:22:00,74.0,51.0,-100.00,NW,321,4.0,7.0,44,-99.99,,,-99.99,0.000000,,2013-09-07 06:22:00,
2013-09-07 00:42:00,73.0,51.0,-100.00,NW,323,6.0,8.0,46,-99.99,,,-99.99,0.000000,,2013-09-07 06:42:00,
2013-09-07 01:42:00,73.0,51.0,-100.00,West,274,2.0,5.0,45,-99.99,,,-99.99,0.000000,,2013-09-07 07:42:00,
2013-09-07 02:12:00,72.0,52.0,-100.00,NW,320,4.0,6.0,49,-99.99,,,-99.99,0.000000,,2013-09-07 08:12:00,
2013-09-07 02:43:00,73.0,52.0,-100.00,North,11,4.0,7.0,46,-99.99,,,-99.99,0.000000,,2013-09-07 08:43:00,
2013-09-07 02:53:00,73.0,52.0,-100.00,North,11,4.0,7.0,46,-99.99,,,-99.99,0.000000,,2013-09-07 08:53:00,
2013-09-07 03:12:00,72.0,52.0,-100.00,NE,42,5.0,9.0,50,-99.99,,,-99.99,0.000000,,2013-09-07 09:12:00,
2013-09-07 04:41:00,70.0,54.0,-100.00,NW,317,4.0,6.0,55,-99.99,,,-99.99,0.000000,,2013-09-07 10:41:00,
2013-09-07 04:52:00,70.0,54.0,-100.00,NW,322,3.0,6.0,55,-99.99,,,-99.99,0.000000,,2013-09-07 10:52:00,
2013-09-07 05:13:00,70.0,54.0,-100.00,NNW,327,4.0,6.0,55,-99.99,,,-99.99,0.000000,,2013-09-07 11:13:00,
2013-09-07 05:43:00,70.0,54.0,-100.00,North,3,5.0,8.0,55,-99.99,,,-99.99,0.000000,,2013-09-07 11:43:00,
2013-09-07 06:42:00,70.0,54.0,-100.00,NW,317,2.0,4.0,55,-99.99,,,-99.99,0.000000,,2013-09-07 12:42:00,
2013-09-07 07:42:00,69.0,54.0,-100.00,North,6,3.0,4.0,58,-99.99,,,-99.99,12.550000,,2013-09-07 13:42:00,
2013-09-07 08:42:00,75.0,52.0,-100.00,North,10,2.0,4.0,45,-99.99,,,-99.99,206.410004,,2013-09-07 14:42:00,
2013-09-07 09:44:00,76.0,52.0,-100.00,SE,132,3.0,6.0,42,-99.99,,,-99.99,384.230011,,2013-09-07 15:44:00,
2013-09-07 10:43:00,78.0,51.0,-100.00,ESE,123,6.0,9.0,39,-99.99,,,-99.99,564.840027,,2013-09-07 16:43:00,
2013-09-07 10:53:00,78.0,52.0,-100.00,ESE,115,7.0,14.0,39,-99.99,,,-99.99,604.590027,,2013-09-07 16:53:00,
2013-09-07 11:12:00,78.0,52.0,-100.00,ESE,106,6.0,12.0,39,-99.99,,,-99.99,640.150024,,2013-09-07 17:12:00,
2013-09-07 11:43:00,80.0,48.0,-100.00,SE,141,8.0,15.0,33,-99.99,,,-99.99,706.400024,,2013-09-07 17:43:00,
2013-09-07 11:52:00,80.0,49.0,-100.00,ESE,122,8.0,16.0,34,-99.99,,,-99.99,737.780029,,2013-09-07 17:52:00,
2013-09-07 12:01:00,80.0,49.0,-100.00,ESE,122,8.0,16.0,34,-99.99,,,-99.99,737.780029,,2013-09-07 18:01:00,
2013-09-07 12:43:00,81.0,48.0,-100.00,SE,125,7.0,15.0,32,-99.99,,,-99.99,806.809998,,2013-09-07 18:43:00,
2013-09-07 13:11:00,82.0,48.0,-100.00,ESE,123,9.0,15.0,30,-99.99,,,-99.99,774.039978,,2013-09-07 19:11:00,
2013-09-07 13:42:00,83.0,48.0,-100.00,SSE,147,6.0,14.0,30,-99.99,,,-99.99,853.539978,,2013-09-07 19:42:00,
2013-09-07 13:52:00,83.0,48.0,-100.00,SE,132,6.0,24.0,29,-99.99,,,-99.99,737.080017,,2013-09-07 19:52:00,
2013-09-07 14:02:00,83.0,48.0,-100.00,SE,132,6.0,24.0,29,-99.99,,,-99.99,737.080017,,2013-09-07 20:02:00,
2013-09-07 14:42:00,85.0,47.0,-100.00,SSE,153,11.0,19.0,27,-99.99,,,-99.99,735.690002,,2013-09-07 20:42:00,
2013-09-07 15:12:00,85.0,45.0,-100.00,SE,142,9.0,16.0,24,-99.99,,,-99.99,784.500000,,2013-09-07 21:12:00,
2013-09-07 15:44:00,86.0,45.0,-100.00,South,180,11.0,20.0,23,-99.99,,,-99.99,806.119995,,2013-09-07 21:44:00,
2013-09-07 16:13:00,85.0,44.0,-100.00,SSE,155,10.0,19.0,23,-99.99,,,-99.99,145.740005,,2013-09-07 22:13:00,
2013-09-07 16:43:00,86.0,43.0,-100.00,SE,124,12.0,23.0,22,-99.99,,,-99.99,533.460022,,2013-09-07 22:43:00,
2013-09-07 16:53:00,86.0,43.0,-100.00,SE,141,12.0,20.0,22,-99.99,,,-99.99,460.239990,,2013-09-07 22:53:00,
2013-09-07 17:03:00,86.0,43.0,-100.00,SE,141,12.0,20.0,22,-99.99,,,-99.99,460.239990,,2013-09-07 23:03:00,
2013-09-07 17:42:00,86.0,43.0,-100.00,SSE,161,12.0,19.0,22,-99.99,,,-99.99,350.760010,,2013-09-07 23:42:00,
2013-09-07 18:42:00,85.0,41.0,-100.00,SSE,159,10.0,15.0,21,-99.99,,,-99.99,202.919998,,2013-09-08 00:42:00,
2013-09-07 19:11:00,84.0,40.0,-100.00,SSE,158,8.0,14.0,21,-99.99,,,-99.99,93.440002,,2013-09-08 01:11:00,
2013-09-07 20:43:00,78.0,40.0,-100.00,South,188,1.0,5.0,25,-99.99,,,-99.99,0.000000,,2013-09-08 02:43:00,
2013-09-07 21:44:00,78.0,41.0,-100.00,SSE,155,2.0,7.0,27,-99.99,,,-99.99,0.000000,,2013-09-08 03:44:00,
2013-09-07 21:54:00,77.0,42.0,-100.00,North,354,2.0,3.0,28,-99.99,,,-99.99,0.000000,,2013-09-08 03:54:00,
2013-09-07 22:02:00,-999.0,-99.9,-100.00,North,354,2.0,3.0,-999,-99.99,,,-99.99,,,2013-09-08 04:02:00,
2013-09-07 22:43:00,73.0,43.0,-100.00,NW,305,4.0,7.0,33,-99.99,,,-99.99,0.000000,,2013-09-08 04:43:00,
2013-09-07 22:54:00,72.0,44.0,-100.00,NW,319,5.0,7.0,35,-99.99,,,-99.99,0.000000,,2013-09-08 04:54:00,
2013-09-07 23:03:00,72.0,44.0,-100.00,NW,319,5.0,7.0,35,-99.99,,,-99.99,0.000000,,2013-09-08 05:03:00,
2013-09-07 23:43:00,71.0,45.0,-100.00,NW,312,4.0,7.0,39,-99.99,,,-99.99,0.000000,,2013-09-08 05:43:00,